Time,TemperatureF,DewpointF,PressureIn,WindDirection,WindDirectionDegrees,WindSpeedMPH,WindSpeedGustMPH,Humidity,HourlyPrecipIn,Conditions,Clouds,dailyrainin,SoftwareType,DateUTC
2013-03-10 00:03:00,49.6,9.0,29.91,South,180,3.0,4.0,19,0.00,CLR,CLR,0.00,WeatherDisplay:10.37,2013-03-10 05:03:00,
2013-03-10 00:18:00,49.5,8.8,29.91,South,177,3.0,5.0,19,0.00,CLR,CLR,0.00,WeatherDisplay:10.37,2013-03-10 05:18:00,
2013-03-10 00:33:00,49.6,9.0,29.91,South,173,3.0,4.0,19,0.00,CLR,CLR,0.00,WeatherDisplay:10.37,2013-03-10 05:33:00,
2013-03-10 00:48:00,49.8,9.1,29.88,South,180,3.0,6.0,19,0.00,CLR,CLR,0.00,WeatherDisplay:10.37,2013-03-10 05:48:00,
2013-03-10 01:03:00,50.0,9.3,29.91,South,173,3.0,5.0,19,0.00,CLR,CLR,0.00,WeatherDisplay:10.37,2013-03-10 06:03:00,
2013-03-10 01:18:00,50.5,9.7,29.91,South,190,5.0,6.0,19,0.00,CLR,CLR,0.00,WeatherDisplay:10.37,2013-03-10 06:18:00,
2013-03-10 01:33:00,51.3,10.3,29.93,SSW,196,6.0,10.0,19,0.00,CLR,CLR,0.00,WeatherDisplay:10.37,2013-03-10 06:33:00,
2013-03-10 01:48:00,51.6,10.6,29.93,South,180,5.0,7.0,19,0.00,CLR,CLR,0.00,WeatherDisplay:10.37,2013-03-10 06:48:00,
2013-03-10 03:03:00,51.3,10.3,29.93,South,178,5.0,6.0,19,0.00,CLR,CLR,0.00,WeatherDisplay:10.37,2013-03-10 07:03:00,
2013-03-10 03:18:00,51.1,10.2,29.93,South,170,5.0,6.0,19,0.00,CLR,CLR,0.00,WeatherDisplay:10.37,2013-03-10 07:18:00,
2013-03-10 03:19:00,51.1,34.1,29.93,South,176,3.0,5.0,52,0.00,SCT,SCT,0.00,WeatherDisplay:10.37,2013-03-10 07:19:00,
2013-03-10 03:20:00,51.1,34.1,29.93,South,176,3.0,0.0,52,0.00,SCT,SCT,0.00,WeatherDisplay:10.37,2013-03-10 07:20:00,
2013-03-10 03:21:00,51.1,34.1,29.93,South,176,3.0,0.0,52,0.00,SCT,SCT,0.00,WeatherDisplay:10.37,2013-03-10 07:21:00,
2013-03-10 03:22:00,51.1,34.1,29.93,South,176,3.0,0.0,52,0.00,SCT,SCT,0.00,WeatherDisplay:10.37,2013-03-10 07:22:00,
2013-03-10 03:23:00,51.1,34.1,29.93,South,176,3.0,0.0,52,0.00,SCT,SCT,0.00,WeatherDisplay:10.37,2013-03-10 07:23:00,
2013-03-10 03:24:00,51.1,34.1,29.93,South,176,3.0,0.0,52,0.00,SCT,SCT,0.00,WeatherDisplay:10.37,2013-03-10 07:24:00,
2013-03-10 03:25:00,51.1,34.1,29.93,South,176,3.0,0.0,52,0.00,SCT,SCT,0.00,WeatherDisplay:10.37,2013-03-10 07:25:00,
2013-03-10 03:26:00,51.1,34.1,29.93,South,176,3.0,0.0,52,0.00,SCT,SCT,0.00,WeatherDisplay:10.37,2013-03-10 07:26:00,
2013-03-10 03:27:00,51.1,34.1,29.93,South,176,3.0,0.0,52,0.00,SCT,SCT,0.00,WeatherDisplay:10.37,2013-03-10 07:27:00,
2013-03-10 03:28:00,51.1,34.1,29.93,South,176,3.0,0.0,52,0.00,SCT,SCT,0.00,WeatherDisplay:10.37,2013-03-10 07:28:00,
2013-03-10 03:29:00,51.1,34.1,29.93,South,176,3.0,0.0,52,0.00,SCT,SCT,0.00,WeatherDisplay:10.37,2013-03-10 07:29:00,
2013-03-10 03:30:00,51.1,34.1,29.93,South,176,3.0,0.0,52,0.00,SCT,SCT,0.00,WeatherDisplay:10.37,2013-03-10 07:30:00,
2013-03-10 03:31:00,51.1,34.1,29.93,South,176,3.0,0.0,52,0.00,SCT,SCT,0.00,WeatherDisplay:10.37,2013-03-10 07:31:00,
2013-03-10 03:32:00,51.1,34.1,29.93,South,176,3.0,0.0,52,0.00,SCT,SCT,0.00,WeatherDisplay:10.37,2013-03-10 07:32:00,
2013-03-10 03:33:00,51.1,34.1,29.93,South,176,3.0,0.0,52,0.00,SCT,SCT,0.00,WeatherDisplay:10.37,2013-03-10 07:33:00,
2013-03-10 08:30:00,51.1,23.7,29.93,South,180,10.3,10.3,34,0.00,CLR,,0.00,WeatherDisplay:10.37,2013-03-10 12:30:00,
2013-03-10 08:31:00,51.1,38.1,29.93,South,180,4.6,4.6,61,0.00,SCT,,0.00,WeatherDisplay:10.37,2013-03-10 12:31:00,
2013-03-10 08:32:00,51.1,38.1,29.93,South,180,4.6,4.6,61,0.00,SCT,,0.00,WeatherDisplay:10.37,2013-03-10 12:32:00,
2013-03-10 08:37:00,51.3,38.3,29.91,SE,135,5.8,5.8,61,0.00,SCT,,0.00,WeatherDisplay:10.37,2013-03-10 12:37:00,
2013-03-10 08:42:00,51.3,38.3,29.91,South,180,5.8,5.8,61,0.00,SCT,,0.00,WeatherDisplay:10.37,2013-03-10 12:42:00,
2013-03-10 08:47:00,51.4,38.4,29.91,South,180,4.6,4.6,61,0.00,CLR,,0.00,WeatherDisplay:10.37,2013-03-10 12:47:00,
2013-03-10 08:52:00,51.4,38.4,29.93,SE,135,5.8,5.8,61,0.00,CLR,,0.00,WeatherDisplay:10.37,2013-03-10 12:52:00,
2013-03-10 08:57:00,51.6,38.6,29.93,South,180,6.9,6.9,61,0.00,CLR,,0.00,WeatherDisplay:10.37,2013-03-10 12:57:00,
2013-03-10 09:02:00,51.6,38.6,29.93,South,180,6.0,6.0,61,0.00,CLR,,0.00,WeatherDisplay:10.37,2013-03-10 13:02:00,
2013-03-10 09:07:00,52.0,38.5,29.91,South,180,8.1,8.1,60,0.00,CLR,,0.00,WeatherDisplay:10.37,2013-03-10 13:07:00,
2013-03-10 09:12:00,52.2,38.7,29.91,South,180,9.2,9.2,60,0.00,CLR,,0.00,WeatherDisplay:10.37,2013-03-10 13:12:00,
2013-03-10 09:17:00,52.3,38.9,29.91,South,180,9.2,9.2,60,0.00,FEW,,0.00,WeatherDisplay:10.37,2013-03-10 13:17:00,
2013-03-10 09:22:00,52.7,39.2,29.91,South,180,6.9,6.9,60,0.00,FEW,,0.00,WeatherDisplay:10.37,2013-03-10 13:22:00,
2013-03-10 09:27:00,52.9,39.4,29.91,South,180,6.9,6.9,60,0.00,FEW,,0.00,WeatherDisplay:10.37,2013-03-10 13:27:00,
2013-03-10 09:32:00,53.2,39.7,29.91,South,180,8.1,8.1,60,0.00,FEW,,0.00,WeatherDisplay:10.37,2013-03-10 13:32:00,
2013-03-10 09:37:00,53.8,40.2,29.91,South,180,6.9,6.9,60,0.00,FEW,,0.00,WeatherDisplay:10.37,2013-03-10 13:37:00,
2013-03-10 09:42:00,54.3,40.7,29.91,SE,135,6.9,6.9,60,0.00,FEW,,0.00,WeatherDisplay:10.37,2013-03-10 13:42:00,
2013-03-10 09:47:00,54.9,41.2,29.91,South,180,5.8,5.8,60,0.00,FEW,,0.00,WeatherDisplay:10.37,2013-03-10 13:47:00,
2013-03-10 09:52:00,55.4,40.9,29.91,SE,135,4.6,4.6,58,0.00,FEW,,0.00,WeatherDisplay:10.37,2013-03-10 13:52:00,
2013-03-10 09:57:00,55.8,41.2,29.91,South,180,7.4,7.4,58,0.00,FEW,,0.00,WeatherDisplay:10.37,2013-03-10 13:57:00,
2013-03-10 10:02:00,56.5,41.9,29.91,South,180,6.0,6.0,58,0.00,FEW,,0.00,WeatherDisplay:10.37,2013-03-10 14:02:00,
2013-03-10 10:07:00,57.7,43.1,29.91,SSE,158,5.8,5.8,58,0.00,FEW,,0.00,WeatherDisplay:10.37,2013-03-10 14:07:00,
2013-03-10 10:12:00,58.3,43.6,29.91,South,180,11.5,11.5,58,0.00,FEW,,0.00,WeatherDisplay:10.37,2013-03-10 14:12:00,
2013-03-10 10:17:00,58.1,43.4,29.91,South,180,10.4,10.4,58,0.00,OVC,,0.00,WeatherDisplay:10.37,2013-03-10 14:17:00,
2013-03-10 10:22:00,58.3,43.6,29.88,South,180,10.4,10.4,58,0.00,OVC,,0.00,WeatherDisplay:10.37,2013-03-10 14:22:00,
2013-03-10 10:27:00,58.6,43.9,29.88,South,180,9.2,9.2,58,0.00,OVC,,0.00,WeatherDisplay:10.37,2013-03-10 14:27:00,
2013-03-10 10:32:00,59.0,44.2,29.88,South,180,11.5,11.5,58,0.00,OVC,,0.00,WeatherDisplay:10.37,2013-03-10 14:32:00,
2013-03-10 10:37:00,59.4,44.6,29.91,South,180,12.7,12.7,58,0.00,OVC,,0.00,WeatherDisplay:10.37,2013-03-10 14:37:00,
2013-03-10 10:42:00,59.7,44.9,29.91,SSW,202,8.7,8.7,58,0.00,OVC,,0.00,WeatherDisplay:10.37,2013-03-10 14:42:00,
2013-03-10 10:47:00,59.9,45.1,29.91,South,180,10.4,10.4,58,0.00,OVC,,0.00,WeatherDisplay:10.37,2013-03-10 14:47:00,
2013-03-10 10:52:00,59.9,45.1,29.91,SW,225,10.4,10.4,58,0.00,OVC,,0.00,WeatherDisplay:10.37,2013-03-10 14:52:00,
2013-03-10 10:57:00,60.3,45.4,29.91,South,180,10.5,10.5,58,0.00,OVC,,0.00,WeatherDisplay:10.37,2013-03-10 14:57:00,
2013-03-10 11:02:00,60.6,45.8,29.91,South,180,11.5,11.5,58,0.00,OVC,,0.00,WeatherDisplay:10.37,2013-03-10 15:02:00,
2013-03-10 11:07:00,60.6,45.8,29.91,South,180,9.2,9.2,58,0.00,OVC,,0.00,WeatherDisplay:10.37,2013-03-10 15:07:00,
2013-03-10 11:12:00,61.0,45.6,29.91,South,180,10.7,10.7,57,0.00,OVC,,0.00,WeatherDisplay:10.37,2013-03-10 15:12:00,
2013-03-10 11:17:00,61.2,45.8,29.91,South,180,9.8,9.8,57,0.00,OVC,,0.00,WeatherDisplay:10.37,2013-03-10 15:17:00,
2013-03-10 11:22:00,61.7,46.3,29.91,South,180,10.4,10.4,57,0.00,OVC,,0.00,WeatherDisplay:10.37,2013-03-10 15:22:00,
2013-03-10 11:27:00,61.3,46.0,29.91,SSW,202,9.2,9.2,57,0.00,OVC,,0.00,WeatherDisplay:10.37,2013-03-10 15:27:00,
2013-03-10 11:32:00,61.3,46.0,29.91,SSW,202,12.7,12.7,57,0.00,OVC,,0.00,WeatherDisplay:10.37,2013-03-10 15:32:00,
2013-03-10 11:37:00,61.5,46.1,29.91,South,180,11.5,11.5,57,0.00,OVC,,0.00,WeatherDisplay:10.37,2013-03-10 15:37:00,
2013-03-10 11:42:00,62.1,46.6,29.91,South,180,12.7,12.7,57,0.00,OVC,,0.00,WeatherDisplay:10.37,2013-03-10 15:42:00,
2013-03-10 11:47:00,62.8,47.3,29.91,South,180,9.2,9.4,57,0.00,OVC,,0.00,WeatherDisplay:10.37,2013-03-10 15:47:00,
2013-03-10 11:52:00,63.3,47.8,29.91,South,180,7.4,7.4,57,0.00,OVC,,0.00,WeatherDisplay:10.37,2013-03-10 15:52:00,
2013-03-10 11:57:00,63.3,47.8,29.91,SW,225,12.1,12.1,57,0.00,OVC,,0.00,WeatherDisplay:10.37,2013-03-10 15:57:00,
2013-03-10 12:02:00,63.3,47.8,29.91,South,180,8.1,8.1,57,0.00,OVC,,0.00,WeatherDisplay:10.37,2013-03-10 16:02:00,
2013-03-10 12:07:00,63.1,47.7,29.91,South,180,8.1,8.1,57,0.00,OVC,,0.00,WeatherDisplay:10.37,2013-03-10 16:07:00,
2013-03-10 12:12:00,63.0,47.5,29.91,SSW,202,12.7,12.7,57,0.00,OVC,,0.00,WeatherDisplay:10.37,2013-03-10 16:12:00,
2013-03-10 12:17:00,63.0,47.5,29.91,South,180,9.2,9.2,57,0.00,OVC,,0.00,WeatherDisplay:10.37,2013-03-10 16:17:00,
2013-03-10 12:22:00,63.0,47.5,29.91,South,180,9.2,9.2,57,0.00,OVC,,0.00,WeatherDisplay:10.37,2013-03-10 16:22:00,
2013-03-10 12:27:00,63.0,47.5,29.91,South,180,17.3,17.3,57,0.00,OVC,,0.00,WeatherDisplay:10.37,2013-03-10 16:27:00,
2013-03-10 12:32:00,63.1,47.7,29.91,South,180,10.7,10.7,57,0.00,OVC,,0.00,WeatherDisplay:10.37,2013-03-10 16:32:00,
2013-03-10 12:37:00,63.5,39.4,29.91,South,180,13.8,13.8,41,0.00,OVC,,0.00,WeatherDisplay:10.37,2013-03-10 16:37:00,
2013-03-10 12:42:00,64.2,40.0,29.91,South,180,10.4,10.4,41,0.00,OVC,,0.00,WeatherDisplay:10.37,2013-03-10 16:42:00,
2013-03-10 12:47:00,64.6,39.0,29.91,South,180,9.2,9.2,39,0.00,OVC,,0.00,WeatherDisplay:10.37,2013-03-10 16:47:00,
2013-03-10 12:52:00,64.8,39.2,29.91,South,180,11.5,11.5,39,0.00,OVC,,0.00,WeatherDisplay:10.37,2013-03-10 16:52:00,
2013-03-10 12:57:00,65.5,39.9,29.91,South,180,12.7,12.7,39,0.00,OVC,,0.00,WeatherDisplay:10.37,2013-03-10 16:57:00,
2013-03-10 13:02:00,66.2,40.5,29.91,South,180,10.4,10.4,39,0.00,OVC,,0.00,WeatherDisplay:10.37,2013-03-10 17:02:00,
2013-03-10 13:07:00,66.6,40.8,29.91,SSE,158,11.4,11.4,39,0.00,OVC,,0.00,WeatherDisplay:10.37,2013-03-10 17:07:00,
2013-03-10 13:12:00,66.6,40.8,29.91,SSW,202,13.0,13.0,39,0.00,OVC,,0.00,WeatherDisplay:10.37,2013-03-10 17:12:00,
2013-03-10 13:17:00,66.7,41.0,29.91,South,180,19.6,19.6,39,0.00,OVC,,0.00,WeatherDisplay:10.37,2013-03-10 17:17:00,
2013-03-10 13:22:00,67.1,41.3,29.91,South,180,17.3,17.3,39,0.00,OVC,,0.00,WeatherDisplay:10.37,2013-03-10 17:22:00,
2013-03-10 13:27:00,67.5,41.6,29.91,South,180,11.5,11.5,39,0.00,OVC,,0.00,WeatherDisplay:10.37,2013-03-10 17:27:00,
2013-03-10 13:32:00,67.1,41.3,29.91,South,180,12.7,12.7,39,0.00,OVC,,0.00,WeatherDisplay:10.37,2013-03-10 17:32:00,
2013-03-10 13:37:00,67.1,41.3,29.91,South,180,12.7,12.7,39,0.00,OVC,,0.00,WeatherDisplay:10.37,2013-03-10 17:37:00,
2013-03-10 13:42:00,66.9,41.1,29.91,South,180,13.8,13.8,39,0.00,OVC,,0.00,WeatherDisplay:10.37,2013-03-10 17:42:00,
2013-03-10 13:47:00,67.3,41.5,29.91,South,180,12.7,12.7,39,0.00,OVC,,0.00,WeatherDisplay:10.37,2013-03-10 17:47:00,
2013-03-10 13:52:00,68.4,42.4,29.88,SSW,202,11.5,11.5,39,0.00,OVC,,0.00,WeatherDisplay:10.37,2013-03-10 17:52:00,
2013-03-10 13:57:00,68.9,42.9,29.88,South,180,16.1,16.1,39,0.00,OVC,,0.00,WeatherDisplay:10.37,2013-03-10 17:57:00,
2013-03-10 14:02:00,68.5,42.6,29.88,South,180,19.6,19.6,39,0.00,OVC,,0.00,WeatherDisplay:10.37,2013-03-10 18:02:00,
2013-03-10 14:07:00,69.8,42.3,29.88,SSW,202,15.0,15.0,37,0.00,OVC,,0.00,WeatherDisplay:10.37,2013-03-10 18:07:00,
2013-03-10 14:12:00,71.1,43.5,29.88,South,180,20.7,20.7,37,0.00,OVC,,0.00,WeatherDisplay:10.37,2013-03-10 18:12:00,
2013-03-10 14:17:00,70.3,42.8,29.88,South,180,15.0,15.0,37,0.00,OVC,,0.00,WeatherDisplay:10.37,2013-03-10 18:17:00,
2013-03-10 14:22:00,71.2,43.6,29.88,SSW,202,12.7,12.7,37,0.00,OVC,,0.00,WeatherDisplay:10.37,2013-03-10 18:22:00,
2013-03-10 14:27:00,71.2,43.6,29.88,South,180,13.8,13.8,37,0.00,OVC,,0.00,WeatherDisplay:10.37,2013-03-10 18:27:00,
2013-03-10 14:32:00,70.5,43.0,29.88,South,180,12.7,12.7,37,0.00,OVC,,0.00,WeatherDisplay:10.37,2013-03-10 18:32:00,
2013-03-10 14:37:00,70.2,42.7,29.85,South,180,13.0,13.0,37,0.00,OVC,,0.00,WeatherDisplay:10.37,2013-03-10 18:37:00,
2013-03-10 14:42:00,70.2,42.7,29.85,South,180,9.2,9.2,37,0.00,OVC,,0.00,WeatherDisplay:10.37,2013-03-10 18:42:00,
2013-03-10 14:47:00,70.2,42.7,29.85,South,180,10.0,10.0,37,0.00,OVC,,0.00,WeatherDisplay:10.37,2013-03-10 18:47:00,
2013-03-10 14:52:00,70.3,42.8,29.85,SSE,158,14.3,14.3,37,0.00,OVC,,0.00,WeatherDisplay:10.37,2013-03-10 18:52:00,
2013-03-10 14:57:00,70.7,43.1,29.85,South,180,17.3,17.3,37,0.00,OVC,,0.00,WeatherDisplay:10.37,2013-03-10 18:57:00,
2013-03-10 15:02:00,72.3,44.6,29.85,South,180,15.0,15.0,37,0.00,CLR,,0.00,WeatherDisplay:10.37,2013-03-10 19:02:00,
2013-03-10 15:07:00,71.6,43.9,29.85,South,180,13.8,13.8,37,0.00,CLR,,0.00,WeatherDisplay:10.37,2013-03-10 19:07:00,
2013-03-10 15:12:00,72.3,44.6,29.85,South,180,13.8,13.8,37,0.00,CLR,,0.00,WeatherDisplay:10.37,2013-03-10 19:12:00,
2013-03-10 15:17:00,71.6,43.9,29.85,South,180,17.3,17.3,37,0.00,CLR,,0.00,WeatherDisplay:10.37,2013-03-10 19:17:00,
2013-03-10 15:22:00,70.9,43.3,29.85,South,180,19.6,19.6,37,0.00,CLR,,0.00,WeatherDisplay:10.37,2013-03-10 19:22:00,
2013-03-10 15:27:00,70.7,43.1,29.85,South,180,12.7,13.2,37,0.00,CLR,,0.00,WeatherDisplay:10.37,2013-03-10 19:27:00,
2013-03-10 15:32:00,70.9,43.3,29.85,SSE,158,16.1,16.1,37,0.00,CLR,,0.00,WeatherDisplay:10.37,2013-03-10 19:32:00,
2013-03-10 15:37:00,70.9,43.3,29.85,South,180,21.9,21.9,37,0.00,CLR,,0.00,WeatherDisplay:10.37,2013-03-10 19:37:00,
2013-03-10 15:42:00,70.2,42.7,29.85,South,180,10.4,10.4,37,0.00,CLR,,0.00,WeatherDisplay:10.37,2013-03-10 19:42:00,
2013-03-10 15:47:00,69.6,43.6,29.85,South,180,16.1,16.1,39,0.00,CLR,,0.00,WeatherDisplay:10.37,2013-03-10 19:47:00,
2013-03-10 15:52:00,69.3,43.2,29.85,South,180,12.7,12.7,39,0.00,CLR,,0.00,WeatherDisplay:10.37,2013-03-10 19:52:00,
2013-03-10 15:58:00,68.7,42.8,29.85,SSW,202,15.0,15.0,39,0.00,CLR,,0.00,WeatherDisplay:10.37,2013-03-10 19:58:00,
2013-03-10 16:03:00,68.7,42.8,29.85,SE,135,17.3,17.3,39,0.00,OVC,,0.00,WeatherDisplay:10.37,2013-03-10 20:03:00,
2013-03-10 16:08:00,68.7,42.8,29.85,South,180,17.3,17.3,39,0.00,OVC,,0.00,WeatherDisplay:10.37,2013-03-10 20:08:00,
2013-03-10 16:13:00,68.7,42.8,29.85,South,180,13.8,13.8,39,0.00,OVC,,0.00,WeatherDisplay:10.37,2013-03-10 20:13:00,
2013-03-10 16:18:00,68.5,42.6,29.85,SW,225,11.5,12.1,39,0.00,OVC,,0.00,WeatherDisplay:10.37,2013-03-10 20:18:00,
2013-03-10 16:23:00,68.5,42.6,29.85,South,180,15.0,15.0,39,0.00,OVC,,0.00,WeatherDisplay:10.37,2013-03-10 20:23:00,
2013-03-10 16:28:00,68.4,42.4,29.85,South,180,13.2,13.2,39,0.00,OVC,,0.00,WeatherDisplay:10.37,2013-03-10 20:28:00,
2013-03-10 16:33:00,68.1,42.2,29.84,South,181,14.0,0.0,39,0.00,OVC,OVC,0.00,WeatherDisplay:10.37,2013-03-10 20:33:00,
2013-03-10 16:38:00,68.0,42.1,29.82,South,180,10.4,10.4,39,0.00,OVC,,0.00,WeatherDisplay:10.37,2013-03-10 20:38:00,
2013-03-10 16:43:00,67.6,41.8,29.82,South,180,16.1,16.1,39,0.00,OVC,,0.00,WeatherDisplay:10.37,2013-03-10 20:43:00,
2013-03-10 16:48:00,67.5,41.6,29.81,South,180,10.0,0.0,39,0.00,OVC,OVC,0.00,WeatherDisplay:10.37,2013-03-10 20:48:00,
2013-03-10 16:53:00,67.5,41.6,29.79,South,180,13.8,13.8,39,0.00,OVC,,0.00,WeatherDisplay:10.37,2013-03-10 20:53:00,
2013-03-10 16:58:00,67.3,41.5,29.79,South,180,9.2,9.2,39,0.00,OVC,,0.00,WeatherDisplay:10.37,2013-03-10 20:58:00,
2013-03-10 17:03:00,67.1,41.3,29.79,South,179,9.0,0.0,39,0.00,SCT,SCT,0.00,WeatherDisplay:10.37,2013-03-10 21:03:00,
2013-03-10 17:08:00,67.1,41.3,29.79,SSE,158,5.8,5.9,39,0.00,SCT,,0.00,WeatherDisplay:10.37,2013-03-10 21:08:00,
2013-03-10 17:13:00,67.1,41.3,29.79,South,180,8.1,8.1,39,0.00,SCT,,0.00,WeatherDisplay:10.37,2013-03-10 21:13:00,
2013-03-10 17:18:00,67.1,41.3,29.79,SSE,161,6.0,0.0,39,0.00,SCT,SCT,0.00,WeatherDisplay:10.37,2013-03-10 21:18:00,
2013-03-10 17:23:00,67.3,41.5,29.79,SE,135,8.1,8.1,39,0.00,SCT,,0.00,WeatherDisplay:10.37,2013-03-10 21:23:00,
2013-03-10 17:28:00,67.3,41.5,29.79,SE,135,4.6,4.6,39,0.00,SCT,,0.00,WeatherDisplay:10.37,2013-03-10 21:28:00,
2013-03-10 17:33:00,67.1,41.3,29.79,East,90,8.1,8.1,39,0.00,SCT,,0.00,WeatherDisplay:10.37,2013-03-10 21:33:00,
2013-03-10 17:38:00,66.7,41.0,29.79,SE,135,6.9,6.9,39,0.00,SCT,,0.00,WeatherDisplay:10.37,2013-03-10 21:38:00,
2013-03-10 17:43:00,66.4,40.7,29.79,SSE,158,5.9,5.9,39,0.00,SCT,,0.00,WeatherDisplay:10.37,2013-03-10 21:43:00,
2013-03-10 17:48:00,66.0,40.4,29.79,SE,144,6.0,0.0,39,0.00,SCT,SCT,0.00,WeatherDisplay:10.37,2013-03-10 21:48:00,
2013-03-10 17:53:00,65.8,40.2,29.79,SE,135,6.0,6.0,39,0.00,SCT,,0.00,WeatherDisplay:10.37,2013-03-10 21:53:00,
2013-03-10 17:58:00,65.7,40.0,29.79,South,180,6.9,6.9,39,0.00,SCT,,0.00,WeatherDisplay:10.37,2013-03-10 21:58:00,
2013-03-10 18:03:00,65.7,40.0,29.79,SSE,159,5.0,0.0,39,0.00,SCT,SCT,0.00,WeatherDisplay:10.37,2013-03-10 22:03:00,
2013-03-10 18:08:00,66.0,40.3,29.79,South,180,4.6,4.6,39,0.00,SCT,,0.00,WeatherDisplay:10.37,2013-03-10 22:08:00,
2013-03-10 18:13:00,66.4,40.7,29.79,SE,135,4.6,4.6,39,0.00,SCT,,0.00,WeatherDisplay:10.37,2013-03-10 22:13:00,
2013-03-10 18:18:00,66.6,40.8,29.76,SE,135,4.6,4.6,39,0.00,SCT,,0.00,WeatherDisplay:10.37,2013-03-10 22:18:00,
2013-03-10 18:23:00,66.4,40.7,29.76,SE,135,4.6,4.6,39,0.00,SCT,,0.00,WeatherDisplay:10.37,2013-03-10 22:23:00,
2013-03-10 18:28:00,66.2,40.5,29.76,SE,135,5.8,5.8,39,0.00,SCT,,0.00,WeatherDisplay:10.37,2013-03-10 22:28:00,
2013-03-10 18:33:00,65.8,40.2,29.76,South,180,6.9,6.9,39,0.00,SCT,,0.00,WeatherDisplay:10.37,2013-03-10 22:33:00,
2013-03-10 18:38:00,65.5,39.9,29.76,SE,135,4.6,4.6,39,0.00,SCT,,0.00,WeatherDisplay:10.37,2013-03-10 22:38:00,
2013-03-10 18:43:00,65.5,39.9,29.76,SSE,158,4.6,4.6,39,0.00,SCT,,0.00,WeatherDisplay:10.37,2013-03-10 22:43:00,
2013-03-10 18:48:00,65.1,39.5,29.76,South,180,5.8,5.8,39,0.00,SCT,,0.00,WeatherDisplay:10.37,2013-03-10 22:48:00,
2013-03-10 18:53:00,64.9,39.4,29.76,South,180,6.9,6.9,39,0.00,SCT,,0.00,WeatherDisplay:10.37,2013-03-10 22:53:00,
2013-03-10 18:58:00,64.8,39.2,29.76,South,180,10.4,10.4,39,0.00,SCT,,0.00,WeatherDisplay:10.37,2013-03-10 22:58:00,
2013-03-10 19:03:00,64.8,39.2,29.79,South,180,8.1,8.1,39,0.00,SCT,,0.00,WeatherDisplay:10.37,2013-03-10 23:03:00,
2013-03-10 19:08:00,64.8,39.2,29.79,South,180,10.4,10.4,39,0.00,SCT,,0.00,WeatherDisplay:10.37,2013-03-10 23:08:00,
2013-03-10 19:13:00,64.8,39.2,29.79,South,180,8.1,8.1,39,0.00,SCT,,0.00,WeatherDisplay:10.37,2013-03-10 23:13:00,
2013-03-10 19:18:00,64.2,40.0,29.76,SE,135,6.9,6.9,41,0.00,SCT,,0.00,WeatherDisplay:10.37,2013-03-10 23:18:00,
2013-03-10 19:23:00,63.9,39.7,29.76,SE,135,6.0,6.0,41,0.00,SCT,,0.00,WeatherDisplay:10.37,2013-03-10 23:23:00,
2013-03-10 19:28:00,63.9,39.7,29.76,SE,135,4.0,4.0,41,0.00,SCT,,0.00,WeatherDisplay:10.37,2013-03-10 23:28:00,
2013-03-10 19:33:00,63.7,39.5,29.76,SE,135,5.8,5.8,41,0.00,SCT,,0.00,WeatherDisplay:10.37,2013-03-10 23:33:00,
2013-03-10 19:38:00,63.7,39.5,29.76,SSE,158,6.0,6.0,41,0.00,SCT,,0.00,WeatherDisplay:10.37,2013-03-10 23:38:00,
2013-03-10 19:43:00,63.7,39.5,29.76,South,180,6.9,6.9,41,0.00,SCT,,0.00,WeatherDisplay:10.37,2013-03-10 23:43:00,
2013-03-10 19:48:00,63.5,39.4,29.73,SE,135,4.6,4.6,41,0.00,SCT,,0.00,WeatherDisplay:10.37,2013-03-10 23:48:00,
2013-03-10 19:53:00,63.3,39.2,29.73,SSW,202,4.6,4.6,41,0.00,SCT,,0.00,WeatherDisplay:10.37,2013-03-10 23:53:00,
2013-03-10 19:59:00,63.3,39.2,29.73,SE,135,5.4,5.4,41,0.00,SCT,,0.00,WeatherDisplay:10.37,2013-03-10 23:59:00,
2013-03-10 20:04:00,63.1,39.0,29.73,SE,135,5.8,5.8,41,0.00,BKN,,0.00,WeatherDisplay:10.37,2013-03-11 00:04:00,
2013-03-10 20:09:00,63.1,39.0,29.73,SE,135,5.8,5.8,41,0.00,BKN,,0.00,WeatherDisplay:10.37,2013-03-11 00:09:00,
2013-03-10 20:14:00,63.1,39.0,29.73,SE,135,4.6,4.6,41,0.00,BKN,,0.00,WeatherDisplay:10.37,2013-03-11 00:14:00,
2013-03-10 20:18:00,53.1,10.6,29.73,ESE,117,0.0,2.0,18,0.00,CLR,CLR,0.04,WeatherDisplay:10.37,2013-03-11 00:18:00,
2013-03-10 20:19:00,63.1,39.0,29.73,SSE,158,5.8,5.8,41,0.00,BKN,,0.00,WeatherDisplay:10.37,2013-03-11 00:19:00,
2013-03-10 20:24:00,63.1,39.0,29.73,SE,135,5.8,5.8,41,0.00,BKN,,0.00,WeatherDisplay:10.37,2013-03-11 00:24:00,
2013-03-10 20:29:00,63.1,39.0,29.73,SE,135,6.2,6.2,41,0.00,BKN,,0.00,WeatherDisplay:10.37,2013-03-11 00:29:00,
2013-03-10 20:33:00,52.9,10.5,29.73,SSE,149,0.0,3.0,18,0.04,RA,RA,0.08,WeatherDisplay:10.37,2013-03-11 00:33:00,
2013-03-10 20:34:00,63.1,39.0,29.73,SE,135,5.8,5.8,41,0.00,BKN,,0.00,WeatherDisplay:10.37,2013-03-11 00:34:00,
2013-03-10 20:39:00,63.1,39.0,29.73,SE,135,5.8,5.8,41,0.00,BKN,,0.00,WeatherDisplay:10.37,2013-03-11 00:39:00,
2013-03-10 20:44:00,63.1,39.0,29.73,SSE,158,5.8,5.8,41,0.00,BKN,,0.00,WeatherDisplay:10.37,2013-03-11 00:44:00,
2013-03-10 20:48:00,52.5,10.2,29.73,East,90,0.0,2.0,18,0.04,CLR,CLR,0.08,WeatherDisplay:10.37,2013-03-11 00:48:00,
2013-03-10 20:49:00,63.0,38.9,29.73,SE,135,4.6,4.6,41,0.00,BKN,,0.00,WeatherDisplay:10.37,2013-03-11 00:49:00,
2013-03-10 20:55:00,63.0,38.9,29.73,SE,135,9.2,9.2,41,0.00,BKN,,0.00,WeatherDisplay:10.37,2013-03-11 00:55:00,
2013-03-10 21:00:00,63.0,38.9,29.73,South,180,8.7,8.7,41,0.00,BKN,,0.00,WeatherDisplay:10.37,2013-03-11 01:00:00,
2013-03-10 21:03:00,52.3,10.0,29.73,SSE,152,0.0,0.0,18,0.04,CLR,CLR,0.08,WeatherDisplay:10.37,2013-03-11 01:03:00,
2013-03-10 21:05:00,63.3,39.2,29.76,South,180,8.1,8.1,41,0.00,BKN,,0.00,WeatherDisplay:10.37,2013-03-11 01:05:00,
2013-03-10 21:10:00,63.1,39.0,29.76,South,180,8.1,8.1,41,0.00,BKN,,0.00,WeatherDisplay:10.37,2013-03-11 01:10:00,
2013-03-10 21:15:00,63.1,39.0,29.76,SSE,158,10.5,10.5,41,0.00,BKN,,0.00,WeatherDisplay:10.37,2013-03-11 01:15:00,
2013-03-10 21:18:00,52.9,10.5,29.73,West,266,1.0,2.0,18,0.04,CLR,CLR,0.08,WeatherDisplay:10.37,2013-03-11 01:18:00,
2013-03-10 21:20:00,63.1,39.0,29.73,South,180,10.4,10.4,41,0.00,BKN,,0.00,WeatherDisplay:10.37,2013-03-11 01:20:00,
2013-03-10 21:25:00,63.1,39.0,29.73,South,180,6.2,6.2,41,0.00,BKN,,0.00,WeatherDisplay:10.37,2013-03-11 01:25:00,
2013-03-10 21:30:00,63.1,39.0,29.73,South,180,10.4,10.4,41,0.00,BKN,,0.00,WeatherDisplay:10.37,2013-03-11 01:30:00,
2013-03-10 21:33:00,52.9,10.5,29.73,South,175,3.0,4.0,18,0.00,CLR,CLR,0.08,WeatherDisplay:10.37,2013-03-11 01:33:00,
2013-03-10 21:35:00,63.3,39.2,29.73,South,180,11.5,11.5,41,0.00,OVC,,0.00,WeatherDisplay:10.37,2013-03-11 01:35:00,
2013-03-10 21:40:00,63.0,38.9,29.73,South,180,12.7,12.7,41,0.00,OVC,,0.00,WeatherDisplay:10.37,2013-03-11 01:40:00,
2013-03-10 21:45:00,62.6,38.6,29.73,South,180,15.0,15.0,41,0.00,OVC,,0.00,WeatherDisplay:10.37,2013-03-11 01:45:00,
2013-03-10 21:48:00,53.2,14.2,29.73,South,190,5.0,9.0,21,0.00,CLR,CLR,0.08,WeatherDisplay:10.37,2013-03-11 01:48:00,
2013-03-10 21:50:00,61.7,37.7,29.76,SSE,158,13.8,13.8,41,0.00,OVC,,0.00,WeatherDisplay:10.37,2013-03-11 01:50:00,
2013-03-10 21:55:00,61.0,37.1,29.76,SE,135,8.1,8.1,41,0.00,OVC,,0.00,WeatherDisplay:10.37,2013-03-11 01:55:00,
2013-03-10 22:00:00,60.6,38.0,29.76,SSE,158,6.9,6.9,43,0.00,OVC,,0.00,WeatherDisplay:10.37,2013-03-11 02:00:00,
2013-03-10 22:03:00,53.2,16.3,29.73,South,183,5.0,8.0,23,0.04,RA,RA,0.12,WeatherDisplay:10.37,2013-03-11 02:03:00,
2013-03-10 22:05:00,60.3,37.7,29.73,SE,135,5.6,5.6,43,0.00,OVC,,0.00,WeatherDisplay:10.37,2013-03-11 02:05:00,
2013-03-10 22:10:00,60.3,37.7,29.73,South,180,9.2,9.2,43,0.00,OVC,,0.00,WeatherDisplay:10.37,2013-03-11 02:10:00,
2013-03-10 22:15:00,60.4,37.8,29.73,South,180,9.2,9.2,43,0.00,OVC,,0.00,WeatherDisplay:10.37,2013-03-11 02:15:00,
2013-03-10 22:18:00,52.7,18.7,29.73,South,178,3.0,6.0,26,0.04,CLR,CLR,0.12,WeatherDisplay:10.37,2013-03-11 02:18:00,
2013-03-10 22:20:00,60.4,37.8,29.76,SSW,202,6.9,6.9,43,0.00,BKN,,0.00,WeatherDisplay:10.37,2013-03-11 02:20:00,
2013-03-10 22:25:00,60.3,37.7,29.76,SSW,202,5.8,5.8,43,0.00,BKN,,0.00,WeatherDisplay:10.37,2013-03-11 02:25:00,
2013-03-10 22:31:00,59.5,37.0,29.76,South,180,7.4,7.4,43,0.00,OVC,,0.00,WeatherDisplay:10.37,2013-03-11 02:31:00,
2013-03-10 22:33:00,52.3,21.0,29.73,SSW,193,3.0,5.0,29,0.08,RA,RA,0.16,WeatherDisplay:10.37,2013-03-11 02:33:00,
2013-03-10 22:35:00,58.6,36.2,29.79,SW,225,4.7,4.7,43,0.00,OVC,,0.00,WeatherDisplay:10.37,2013-03-11 02:35:00,
2013-03-10 22:40:00,57.6,35.2,29.79,SSW,202,4.6,4.6,43,0.00,OVC,,0.00,WeatherDisplay:10.37,2013-03-11 02:40:00,
2013-03-10 22:45:00,56.8,34.6,29.79,SW,225,4.6,4.6,43,0.00,OVC,,0.00,WeatherDisplay:10.37,2013-03-11 02:45:00,
2013-03-10 22:48:00,52.0,23.7,29.73,SSW,207,3.0,4.0,33,0.12,RA,RA,0.20,WeatherDisplay:10.37,2013-03-11 02:48:00,
2013-03-10 22:50:00,56.3,34.1,29.79,South,180,4.6,4.6,43,0.00,OVC,,0.00,WeatherDisplay:10.37,2013-03-11 02:50:00,
2013-03-10 22:55:00,56.1,33.9,29.79,SW,225,4.6,4.6,43,0.00,OVC,,0.00,WeatherDisplay:10.37,2013-03-11 02:55:00,
2013-03-10 23:00:00,55.8,33.6,29.79,SSW,202,3.5,3.5,43,0.00,OVC,,0.00,WeatherDisplay:10.37,2013-03-11 03:00:00,
2013-03-10 23:03:00,52.0,26.5,29.73,SSW,195,6.0,6.0,37,0.13,RA,RA,0.25,WeatherDisplay:10.37,2013-03-11 03:03:00,
2013-03-10 23:05:00,55.2,33.7,29.79,South,180,2.4,2.4,44,0.04,-RA,,0.04,WeatherDisplay:10.37,2013-03-11 03:05:00,
2013-03-10 23:10:00,54.9,33.3,29.79,SE,135,2.3,2.3,44,0.04,-RA,,0.04,WeatherDisplay:10.37,2013-03-11 03:10:00,
2013-03-10 23:15:00,54.3,32.8,29.79,SE,135,2.3,2.3,44,0.04,-RA,,0.04,WeatherDisplay:10.37,2013-03-11 03:15:00,
2013-03-10 23:18:00,52.5,32.3,29.70,SSW,210,3.0,6.0,46,0.17,RA,RA,0.29,WeatherDisplay:10.37,2013-03-11 03:18:00,
2013-03-10 23:20:00,54.1,32.7,29.76,SE,135,2.4,2.4,44,0.04,-RA,,0.04,WeatherDisplay:10.37,2013-03-11 03:20:00,
2013-03-10 23:25:00,54.0,32.5,29.76,SE,135,1.4,1.4,44,0.04,-RA,,0.04,WeatherDisplay:10.37,2013-03-11 03:25:00,
2013-03-10 23:30:00,53.8,32.4,29.76,SE,135,1.4,1.4,44,0.04,-RA,,0.04,WeatherDisplay:10.37,2013-03-11 03:30:00,
2013-03-10 23:33:00,53.1,34.9,29.70,SSW,203,6.0,10.0,50,0.17,RA,RA,0.33,WeatherDisplay:10.37,2013-03-11 03:33:00,
2013-03-10 23:35:00,53.8,32.4,29.76,South,180,2.9,2.9,44,0.04,-RA,,0.04,WeatherDisplay:10.37,2013-03-11 03:35:00,
2013-03-10 23:40:00,54.0,32.5,29.76,SE,135,4.6,4.6,44,0.04,-RA,,0.04,WeatherDisplay:10.37,2013-03-11 03:40:00,
2013-03-10 23:48:00,53.6,37.3,29.70,South,188,5.0,10.0,54,0.17,RA,RA,0.37,WeatherDisplay:10.37,2013-03-11 03:48:00,